PWSweather.com
Personal Weather Stations
Station Observations
WATERF01
WaterfordIE

WaterfordIE

Lat: 52.2412507, Lon: -7.1414691

Elevation: 65

Station Type: Davis Vantage Vue

www.waterfordweather.com

High Low Average
Temperature 50.9°F10.5°C 45.2°F7.3°C 48.5°F9.2°C
Dew Point 49.6°F9.8°C 44.4°F6.9°C 47.5°F8.6°C
Winds 9.2 mph 14.8 kmh Calm Calm 3.0 mph WSW4.8 kmh WSW
Wind Gusts 19.6 mph31.5 kmh -- 5.0 mph8.0 kmh
Humidity 97% 95% 96%
Pressure 30.63 in1037.3 mb 30.36 in1028.1 mb -
Precipitation 0.01 in0.3 mm - -
Hour Temp Dew Point Humidity Winds Wind Gusts Pressure Precip Precip Rate Daily Precip Total
12:00 AM 49.7°F9.8°C 48.3°F9.1°C 95% Calm Calm -- 30.63 in1037.3 mb - 0.00 in0.0 mm 0.00 in0.0 mm
12:10 AM 49.6°F9.8°C 48.2°F9.0°C 95% Calm Calm -- 30.63 in1037.3 mb - 0.00 in0.0 mm 0.00 in0.0 mm
12:20 AM 49.5°F9.7°C 48.1°F8.9°C 95% Calm Calm -- 30.63 in1037.3 mb - 0.00 in0.0 mm 0.00 in0.0 mm
12:30 AM 49.4°F9.7°C 48.0°F8.9°C 95% Calm Calm -- 30.62 in1036.9 mb - 0.00 in0.0 mm 0.00 in0.0 mm
12:40 AM 49.3°F9.6°C 47.9°F8.8°C 95% Calm Calm -- 30.62 in1036.9 mb - 0.00 in0.0 mm 0.00 in0.0 mm
12:50 AM 49.2°F9.6°C 47.8°F8.8°C 95% Calm Calm -- 30.62 in1036.9 mb - 0.00 in0.0 mm 0.00 in0.0 mm
01:00 AM 49.1°F9.5°C 48.0°F8.9°C 96% Calm Calm 2.3 mph3.7 kmh 30.62 in1036.9 mb - 0.00 in0.0 mm 0.00 in0.0 mm
01:10 AM 49.0°F9.4°C 47.9°F8.8°C 96% Calm Calm -- 30.61 in1036.6 mb - 0.00 in0.0 mm 0.00 in0.0 mm
01:20 AM 49.0°F9.4°C 48.0°F8.9°C 96% Calm Calm 1.2 mph1.9 kmh 30.61 in1036.6 mb - 0.00 in0.0 mm 0.00 in0.0 mm
01:30 AM 49.0°F9.4°C 47.9°F8.8°C 96% 1.2 mph S1.9 kmh S 2.3 mph3.7 kmh 30.61 in1036.6 mb - 0.00 in0.0 mm 0.00 in0.0 mm
01:40 AM 48.8°F9.3°C 47.7°F8.7°C 96% 2.3 mph SSW3.7 kmh SSW 4.6 mph7.4 kmh 30.61 in1036.6 mb - 0.00 in0.0 mm 0.00 in0.0 mm
01:50 AM 48.7°F9.3°C 47.6°F8.7°C 96% Calm Calm -- 30.61 in1036.6 mb - 0.00 in0.0 mm 0.00 in0.0 mm
02:00 AM 48.6°F9.2°C 47.5°F8.6°C 96% Calm Calm -- 30.61 in1036.6 mb - 0.00 in0.0 mm 0.00 in0.0 mm
02:10 AM 48.5°F9.2°C 47.4°F8.6°C 96% 1.2 mph SSW1.9 kmh SSW 5.8 mph9.3 kmh 30.61 in1036.6 mb - 0.00 in0.0 mm 0.00 in0.0 mm
02:20 AM 48.4°F9.1°C 47.3°F8.5°C 96% 2.3 mph SW3.7 kmh SW 5.8 mph9.3 kmh 30.61 in1036.6 mb - 0.00 in0.0 mm 0.00 in0.0 mm
02:30 AM 48.2°F9.0°C 47.1°F8.4°C 96% Calm Calm -- 30.60 in1036.2 mb - 0.00 in0.0 mm 0.00 in0.0 mm
02:40 AM 48.1°F8.9°C 47.0°F8.3°C 96% Calm Calm -- 30.60 in1036.2 mb - 0.00 in0.0 mm 0.00 in0.0 mm
02:50 AM 48.0°F8.9°C 46.9°F8.3°C 96% 1.2 mph S1.9 kmh S 2.3 mph3.7 kmh 30.60 in1036.2 mb - 0.00 in0.0 mm 0.00 in0.0 mm
03:00 AM 47.8°F8.8°C 46.7°F8.2°C 96% 1.2 mph SE1.9 kmh SE 2.3 mph3.7 kmh 30.60 in1036.2 mb - 0.00 in0.0 mm 0.00 in0.0 mm
03:10 AM 47.8°F8.8°C 46.7°F8.2°C 96% Calm Calm -- 30.59 in1035.9 mb - 0.00 in0.0 mm 0.00 in0.0 mm
03:20 AM 47.8°F8.8°C 46.7°F8.2°C 96% Calm Calm -- 30.59 in1035.9 mb - 0.00 in0.0 mm 0.00 in0.0 mm
03:30 AM 47.8°F8.8°C 46.7°F8.2°C 96% Calm Calm -- 30.59 in1035.9 mb - 0.00 in0.0 mm 0.00 in0.0 mm
03:40 AM 47.8°F8.8°C 46.7°F8.2°C 96% Calm Calm -- 30.59 in1035.9 mb - 0.00 in0.0 mm 0.00 in0.0 mm
03:50 AM 47.7°F8.7°C 46.6°F8.1°C 96% Calm Calm -- 30.58 in1035.6 mb - 0.00 in0.0 mm 0.00 in0.0 mm
04:00 AM 47.8°F8.8°C 46.7°F8.2°C 96% Calm Calm -- 30.58 in1035.6 mb - 0.00 in0.0 mm 0.00 in0.0 mm
04:10 AM 47.9°F8.8°C 46.8°F8.2°C 96% Calm Calm -- 30.59 in1035.9 mb - 0.00 in0.0 mm 0.00 in0.0 mm
04:20 AM 47.9°F8.8°C 46.8°F8.2°C 96% Calm Calm -- 30.59 in1035.9 mb - 0.00 in0.0 mm 0.00 in0.0 mm
04:30 AM 47.9°F8.8°C 46.8°F8.2°C 96% Calm Calm -- 30.58 in1035.6 mb - 0.00 in0.0 mm 0.00 in0.0 mm
04:40 AM 47.8°F8.8°C 46.8°F8.2°C 96% Calm Calm -- 30.58 in1035.6 mb - 0.00 in0.0 mm 0.00 in0.0 mm
04:50 AM 47.9°F8.8°C 46.8°F8.2°C 96% Calm Calm 4.6 mph7.4 kmh 30.58 in1035.6 mb - 0.00 in0.0 mm 0.00 in0.0 mm
05:00 AM 47.7°F8.7°C 46.7°F8.2°C 96% Calm Calm -- 30.58 in1035.6 mb - 0.00 in0.0 mm 0.00 in0.0 mm
05:10 AM 47.6°F8.7°C 46.5°F8.1°C 96% 3.5 mph NW5.6 kmh NW 4.6 mph7.4 kmh 30.58 in1035.6 mb - 0.00 in0.0 mm 0.00 in0.0 mm
05:20 AM 47.4°F8.6°C 46.3°F7.9°C 96% 2.3 mph NNW3.7 kmh NNW 5.8 mph9.3 kmh 30.58 in1035.6 mb - 0.00 in0.0 mm 0.00 in0.0 mm
05:30 AM 47.2°F8.4°C 46.1°F7.8°C 96% 2.3 mph NW3.7 kmh NW 4.6 mph7.4 kmh 30.58 in1035.6 mb - 0.00 in0.0 mm 0.00 in0.0 mm
05:40 AM 47.2°F8.4°C 46.1°F7.8°C 96% 1.2 mph NNW1.9 kmh NNW 2.3 mph3.7 kmh 30.58 in1035.6 mb - 0.00 in0.0 mm 0.00 in0.0 mm
05:50 AM 47.3°F8.5°C 46.5°F8.1°C 97% Calm Calm -- 30.57 in1035.2 mb - 0.00 in0.0 mm 0.00 in0.0 mm
06:00 AM 47.3°F8.5°C 46.5°F8.1°C 97% Calm Calm -- 30.58 in1035.6 mb - 0.00 in0.0 mm 0.00 in0.0 mm
06:10 AM 47.3°F8.5°C 46.5°F8.1°C 97% 2.3 mph W3.7 kmh W 2.3 mph3.7 kmh 30.57 in1035.2 mb - 0.00 in0.0 mm 0.00 in0.0 mm
06:20 AM 47.3°F8.5°C 46.5°F8.1°C 97% Calm Calm 1.2 mph1.9 kmh 30.57 in1035.2 mb - 0.00 in0.0 mm 0.00 in0.0 mm
06:30 AM 47.2°F8.4°C 46.1°F7.8°C 96% Calm Calm -- 30.57 in1035.2 mb - 0.00 in0.0 mm 0.00 in0.0 mm
06:40 AM 47.1°F8.4°C 46.3°F7.9°C 97% Calm Calm -- 30.57 in1035.2 mb - 0.00 in0.0 mm 0.00 in0.0 mm
06:50 AM 47.1°F8.4°C 46.2°F7.9°C 97% 1.2 mph SW1.9 kmh SW 4.6 mph7.4 kmh 30.57 in1035.2 mb - 0.00 in0.0 mm 0.00 in0.0 mm
07:00 AM 46.9°F8.3°C 46.1°F7.8°C 97% Calm Calm 4.6 mph7.4 kmh 30.57 in1035.2 mb - 0.00 in0.0 mm 0.00 in0.0 mm
07:10 AM 46.7°F8.2°C 45.9°F7.7°C 97% Calm Calm -- 30.57 in1035.2 mb - 0.00 in0.0 mm 0.00 in0.0 mm
07:20 AM 46.5°F8.1°C 45.7°F7.6°C 97% Calm Calm -- 30.56 in1034.9 mb - 0.00 in0.0 mm 0.00 in0.0 mm
07:30 AM 46.4°F8.0°C 45.6°F7.6°C 97% Calm Calm -- 30.56 in1034.9 mb - 0.00 in0.0 mm 0.00 in0.0 mm
07:40 AM 46.4°F8.0°C 45.6°F7.6°C 97% Calm Calm -- 30.56 in1034.9 mb - 0.01 in0.3 mm 0.01 in0.3 mm
07:50 AM 46.4°F8.0°C 45.6°F7.6°C 97% Calm Calm -- 30.56 in1034.9 mb - 0.00 in0.0 mm 0.01 in0.3 mm
08:00 AM 46.4°F8.0°C 45.6°F7.6°C 97% Calm Calm -- 30.56 in1034.9 mb - 0.00 in0.0 mm 0.01 in0.3 mm
08:10 AM 46.4°F8.0°C 45.6°F7.6°C 97% Calm Calm -- 30.56 in1034.9 mb - 0.00 in0.0 mm 0.01 in0.3 mm
08:20 AM 46.2°F7.9°C 45.4°F7.4°C 97% 2.3 mph SSW3.7 kmh SSW 5.8 mph9.3 kmh 30.56 in1034.9 mb - 0.00 in0.0 mm 0.01 in0.3 mm
08:30 AM 46.1°F7.8°C 45.3°F7.4°C 97% 3.5 mph S5.6 kmh S 5.8 mph9.3 kmh 30.55 in1034.5 mb - 0.00 in0.0 mm 0.01 in0.3 mm
08:40 AM 45.8°F7.7°C 45.0°F7.2°C 97% 2.3 mph SW3.7 kmh SW 2.3 mph3.7 kmh 30.55 in1034.5 mb - 0.00 in0.0 mm 0.01 in0.3 mm
08:50 AM 45.7°F7.6°C 44.9°F7.2°C 97% 2.3 mph S3.7 kmh S 5.8 mph9.3 kmh 30.55 in1034.5 mb - 0.00 in0.0 mm 0.01 in0.3 mm
09:00 AM 45.5°F7.5°C 44.7°F7.1°C 97% 2.3 mph WSW3.7 kmh WSW 2.3 mph3.7 kmh 30.55 in1034.5 mb - 0.00 in0.0 mm 0.01 in0.3 mm
09:10 AM 45.3°F7.4°C 44.5°F6.9°C 97% Calm Calm 2.3 mph3.7 kmh 30.55 in1034.5 mb - 0.00 in0.0 mm 0.01 in0.3 mm
09:20 AM 45.2°F7.3°C 44.4°F6.9°C 97% 1.2 mph WSW1.9 kmh WSW 2.3 mph3.7 kmh 30.54 in1034.2 mb - 0.00 in0.0 mm 0.01 in0.3 mm
09:30 AM 45.4°F7.4°C 44.6°F7.0°C 97% 1.2 mph SW1.9 kmh SW 4.6 mph7.4 kmh 30.54 in1034.2 mb - 0.00 in0.0 mm 0.01 in0.3 mm
09:40 AM 45.6°F7.6°C 44.8°F7.1°C 97% Calm Calm 2.3 mph3.7 kmh 30.54 in1034.2 mb - 0.00 in0.0 mm 0.01 in0.3 mm
09:50 AM 45.8°F7.7°C 45.0°F7.2°C 97% 2.3 mph W3.7 kmh W 2.3 mph3.7 kmh 30.54 in1034.2 mb - 0.00 in0.0 mm 0.01 in0.3 mm
10:00 AM 46.0°F7.8°C 45.2°F7.3°C 97% 1.2 mph SW1.9 kmh SW 4.6 mph7.4 kmh 30.54 in1034.2 mb - 0.00 in0.0 mm 0.01 in0.3 mm
10:10 AM 46.0°F7.8°C 45.2°F7.3°C 97% Calm Calm -- 30.54 in1034.2 mb - 0.00 in0.0 mm 0.01 in0.3 mm
10:20 AM 45.9°F7.7°C 45.1°F7.3°C 97% 1.2 mph WSW1.9 kmh WSW 2.3 mph3.7 kmh 30.55 in1034.5 mb - 0.00 in0.0 mm 0.01 in0.3 mm
10:30 AM 45.8°F7.7°C 45.0°F7.2°C 97% 2.3 mph W3.7 kmh W 5.8 mph9.3 kmh 30.55 in1034.5 mb - 0.00 in0.0 mm 0.01 in0.3 mm
10:40 AM 45.6°F7.6°C 44.8°F7.1°C 97% 1.2 mph WSW1.9 kmh WSW 2.3 mph3.7 kmh 30.55 in1034.5 mb - 0.00 in0.0 mm 0.01 in0.3 mm
10:50 AM 45.7°F7.6°C 44.9°F7.2°C 97% 1.2 mph W1.9 kmh W 4.6 mph7.4 kmh 30.55 in1034.5 mb - 0.00 in0.0 mm 0.01 in0.3 mm
11:00 AM 46.0°F7.8°C 45.2°F7.3°C 97% Calm Calm 1.2 mph1.9 kmh 30.54 in1034.2 mb - 0.00 in0.0 mm 0.01 in0.3 mm
11:10 AM 46.2°F7.9°C 45.4°F7.4°C 97% Calm Calm 1.2 mph1.9 kmh 30.54 in1034.2 mb - 0.00 in0.0 mm 0.01 in0.3 mm
11:20 AM 46.5°F8.1°C 45.7°F7.6°C 97% 1.2 mph W1.9 kmh W 4.6 mph7.4 kmh 30.54 in1034.2 mb - 0.00 in0.0 mm 0.01 in0.3 mm
11:30 AM 46.3°F7.9°C 45.5°F7.5°C 97% 1.2 mph WNW1.9 kmh WNW 2.3 mph3.7 kmh 30.53 in1033.9 mb - 0.00 in0.0 mm 0.01 in0.3 mm
11:40 AM 46.1°F7.8°C 45.3°F7.4°C 97% 1.2 mph WSW1.9 kmh WSW 4.6 mph7.4 kmh 30.53 in1033.9 mb - 0.00 in0.0 mm 0.01 in0.3 mm
11:50 AM 46.3°F7.9°C 45.5°F7.5°C 97% Calm Calm 1.2 mph1.9 kmh 30.53 in1033.9 mb - 0.00 in0.0 mm 0.01 in0.3 mm
12:00 PM 46.5°F8.1°C 45.7°F7.6°C 97% 1.2 mph S1.9 kmh S 4.6 mph7.4 kmh 30.52 in1033.5 mb - 0.00 in0.0 mm 0.01 in0.3 mm
12:10 PM 46.6°F8.1°C 45.8°F7.7°C 97% Calm Calm -- 30.51 in1033.2 mb - 0.00 in0.0 mm 0.01 in0.3 mm
12:20 PM 46.7°F8.2°C 45.9°F7.7°C 97% 1.2 mph S1.9 kmh S 5.8 mph9.3 kmh 30.51 in1033.2 mb - 0.00 in0.0 mm 0.01 in0.3 mm
12:30 PM 46.7°F8.2°C 45.9°F7.7°C 97% 1.2 mph SW1.9 kmh SW 4.6 mph7.4 kmh 30.50 in1032.8 mb - 0.00 in0.0 mm 0.01 in0.3 mm
12:40 PM 46.9°F8.3°C 46.1°F7.8°C 97% 2.3 mph SSW3.7 kmh SSW 5.8 mph9.3 kmh 30.50 in1032.8 mb - 0.00 in0.0 mm 0.01 in0.3 mm
12:50 PM 47.2°F8.4°C 46.4°F8.0°C 97% 2.3 mph W3.7 kmh W 5.8 mph9.3 kmh 30.50 in1032.8 mb - 0.00 in0.0 mm 0.01 in0.3 mm
01:00 PM 47.6°F8.7°C 46.8°F8.2°C 97% 3.5 mph WSW5.6 kmh WSW 5.8 mph9.3 kmh 30.50 in1032.8 mb - 0.00 in0.0 mm 0.01 in0.3 mm
01:10 PM 47.4°F8.6°C 46.6°F8.1°C 97% 1.2 mph WSW1.9 kmh WSW 5.8 mph9.3 kmh 30.50 in1032.8 mb - 0.00 in0.0 mm 0.01 in0.3 mm
01:20 PM 47.8°F8.8°C 46.9°F8.3°C 97% Calm Calm 5.8 mph9.3 kmh 30.49 in1032.5 mb - 0.00 in0.0 mm 0.01 in0.3 mm
01:30 PM 48.0°F8.9°C 47.2°F8.4°C 97% 2.3 mph WNW3.7 kmh WNW 5.8 mph9.3 kmh 30.49 in1032.5 mb - 0.00 in0.0 mm 0.01 in0.3 mm
01:40 PM 48.1°F8.9°C 47.3°F8.5°C 97% 1.2 mph W1.9 kmh W 2.3 mph3.7 kmh 30.49 in1032.5 mb - 0.00 in0.0 mm 0.01 in0.3 mm
01:50 PM 48.4°F9.1°C 47.6°F8.7°C 97% Calm Calm -- 30.48 in1032.2 mb - 0.00 in0.0 mm 0.01 in0.3 mm
02:00 PM 48.6°F9.2°C 47.7°F8.7°C 97% Calm Calm -- 30.48 in1032.2 mb - 0.00 in0.0 mm 0.01 in0.3 mm
02:10 PM 48.7°F9.3°C 47.9°F8.8°C 97% Calm Calm -- 30.48 in1032.2 mb - 0.00 in0.0 mm 0.01 in0.3 mm
02:20 PM 49.4°F9.7°C 48.6°F9.2°C 97% Calm Calm -- 30.47 in1031.8 mb - 0.00 in0.0 mm 0.01 in0.3 mm
02:30 PM 50.4°F10.2°C 49.6°F9.8°C 97% Calm Calm -- 30.46 in1031.5 mb - 0.00 in0.0 mm 0.01 in0.3 mm
02:40 PM 50.4°F10.2°C 49.6°F9.8°C 97% 1.2 mph WSW1.9 kmh WSW 5.8 mph9.3 kmh 30.46 in1031.5 mb - 0.00 in0.0 mm 0.01 in0.3 mm
02:50 PM 50.4°F10.2°C 49.6°F9.8°C 97% 3.5 mph W5.6 kmh W 5.8 mph9.3 kmh 30.46 in1031.5 mb - 0.00 in0.0 mm 0.01 in0.3 mm
03:00 PM 50.3°F10.2°C 49.2°F9.6°C 96% 4.6 mph WSW7.4 kmh WSW 8.1 mph13.0 kmh 30.46 in1031.5 mb - 0.00 in0.0 mm 0.01 in0.3 mm
03:10 PM 50.0°F10.0°C 48.9°F9.4°C 96% 2.3 mph W3.7 kmh W 11.5 mph18.5 kmh 30.46 in1031.5 mb - 0.00 in0.0 mm 0.01 in0.3 mm
03:20 PM 49.9°F9.9°C 48.8°F9.3°C 96% 8.1 mph W13.0 kmh W 11.5 mph18.5 kmh 30.45 in1031.2 mb - 0.00 in0.0 mm 0.01 in0.3 mm
03:30 PM 49.8°F9.9°C 48.7°F9.3°C 96% 8.1 mph W13.0 kmh W 19.6 mph31.5 kmh 30.46 in1031.5 mb - 0.00 in0.0 mm 0.01 in0.3 mm
03:40 PM 49.7°F9.8°C 48.6°F9.2°C 96% 6.9 mph W11.1 kmh W 8.1 mph13.0 kmh 30.45 in1031.2 mb - 0.00 in0.0 mm 0.01 in0.3 mm
03:50 PM 49.8°F9.9°C 48.7°F9.3°C 96% 6.9 mph WSW11.1 kmh WSW 11.5 mph18.5 kmh 30.45 in1031.2 mb - 0.00 in0.0 mm 0.01 in0.3 mm
04:00 PM 50.0°F10.0°C 48.9°F9.4°C 96% 4.6 mph SW7.4 kmh SW 6.9 mph11.1 kmh 30.45 in1031.2 mb - 0.00 in0.0 mm 0.01 in0.3 mm
04:10 PM 50.2°F10.1°C 49.1°F9.5°C 96% 4.6 mph WSW7.4 kmh WSW 8.1 mph13.0 kmh 30.45 in1031.2 mb - 0.00 in0.0 mm 0.01 in0.3 mm
04:20 PM 50.3°F10.2°C 49.2°F9.6°C 96% 1.2 mph W1.9 kmh W 2.3 mph3.7 kmh 30.45 in1031.2 mb - 0.00 in0.0 mm 0.01 in0.3 mm
04:30 PM 50.1°F10.1°C 49.0°F9.4°C 96% 1.2 mph W1.9 kmh W 4.6 mph7.4 kmh 30.45 in1031.2 mb - 0.00 in0.0 mm 0.01 in0.3 mm
04:40 PM 50.0°F10.0°C 48.9°F9.4°C 96% Calm Calm -- 30.45 in1031.2 mb - 0.00 in0.0 mm 0.01 in0.3 mm
04:50 PM 50.1°F10.1°C 49.0°F9.4°C 96% 2.3 mph W3.7 kmh W 4.6 mph7.4 kmh 30.45 in1031.2 mb - 0.00 in0.0 mm 0.01 in0.3 mm
05:00 PM 50.1°F10.1°C 49.0°F9.4°C 96% 3.5 mph WSW5.6 kmh WSW 5.8 mph9.3 kmh 30.44 in1030.8 mb - 0.00 in0.0 mm 0.01 in0.3 mm
05:10 PM 49.8°F9.9°C 48.7°F9.3°C 96% 2.3 mph WSW3.7 kmh WSW 9.2 mph14.8 kmh 30.44 in1030.8 mb - 0.00 in0.0 mm 0.01 in0.3 mm
05:20 PM 50.0°F10.0°C 48.9°F9.4°C 96% 4.6 mph SW7.4 kmh SW 11.5 mph18.5 kmh 30.43 in1030.5 mb - 0.00 in0.0 mm 0.01 in0.3 mm
05:30 PM 50.2°F10.1°C 49.1°F9.5°C 96% 5.8 mph WSW9.3 kmh WSW 12.7 mph20.4 kmh 30.43 in1030.5 mb - 0.00 in0.0 mm 0.01 in0.3 mm
05:40 PM 50.3°F10.2°C 49.2°F9.6°C 96% 6.9 mph W11.1 kmh W 12.7 mph20.4 kmh 30.42 in1030.1 mb - 0.00 in0.0 mm 0.01 in0.3 mm
05:50 PM 50.3°F10.2°C 49.2°F9.6°C 96% 6.9 mph W11.1 kmh W 12.7 mph20.4 kmh 30.42 in1030.1 mb - 0.00 in0.0 mm 0.01 in0.3 mm
06:00 PM 50.4°F10.2°C 49.3°F9.6°C 96% 6.9 mph W11.1 kmh W 11.5 mph18.5 kmh 30.42 in1030.1 mb - 0.00 in0.0 mm 0.01 in0.3 mm
06:10 PM 50.6°F10.3°C 49.5°F9.7°C 96% 6.9 mph WSW11.1 kmh WSW 13.8 mph22.2 kmh 30.42 in1030.1 mb - 0.00 in0.0 mm 0.01 in0.3 mm
06:20 PM 50.6°F10.3°C 49.5°F9.7°C 96% 9.2 mph WSW14.8 kmh WSW 16.1 mph25.9 kmh 30.42 in1030.1 mb - 0.00 in0.0 mm 0.01 in0.3 mm
06:30 PM 50.5°F10.3°C 49.4°F9.7°C 96% 8.1 mph W13.0 kmh W 15.0 mph24.1 kmh 30.42 in1030.1 mb - 0.00 in0.0 mm 0.01 in0.3 mm
06:40 PM 50.5°F10.3°C 49.4°F9.7°C 96% 6.9 mph W11.1 kmh W 13.8 mph22.2 kmh 30.42 in1030.1 mb - 0.00 in0.0 mm 0.01 in0.3 mm
06:50 PM 50.5°F10.3°C 49.4°F9.7°C 96% 2.3 mph WSW3.7 kmh WSW 5.8 mph9.3 kmh 30.43 in1030.5 mb - 0.00 in0.0 mm 0.01 in0.3 mm
07:00 PM 50.4°F10.2°C 49.3°F9.6°C 96% 2.3 mph WSW3.7 kmh WSW 5.8 mph9.3 kmh 30.43 in1030.5 mb - 0.00 in0.0 mm 0.01 in0.3 mm
07:10 PM 50.3°F10.2°C 49.2°F9.6°C 96% 2.3 mph SW3.7 kmh SW 3.5 mph5.6 kmh 30.43 in1030.5 mb - 0.00 in0.0 mm 0.01 in0.3 mm
07:20 PM 50.3°F10.2°C 49.2°F9.6°C 96% 3.5 mph W5.6 kmh W 8.1 mph13.0 kmh 30.43 in1030.5 mb - 0.00 in0.0 mm 0.01 in0.3 mm
07:30 PM 50.4°F10.2°C 49.3°F9.6°C 96% 3.5 mph SSW5.6 kmh SSW 8.1 mph13.0 kmh 30.43 in1030.5 mb - 0.00 in0.0 mm 0.01 in0.3 mm
07:40 PM 50.4°F10.2°C 49.3°F9.6°C 96% 6.9 mph W11.1 kmh W 8.1 mph13.0 kmh 30.42 in1030.1 mb - 0.00 in0.0 mm 0.01 in0.3 mm
07:50 PM 50.4°F10.2°C 49.3°F9.6°C 96% 5.8 mph SW9.3 kmh SW 11.5 mph18.5 kmh 30.41 in1029.8 mb - 0.00 in0.0 mm 0.01 in0.3 mm
08:00 PM 50.3°F10.2°C 49.2°F9.6°C 96% 5.8 mph WSW9.3 kmh WSW 9.2 mph14.8 kmh 30.41 in1029.8 mb - 0.00 in0.0 mm 0.01 in0.3 mm
08:10 PM 50.3°F10.2°C 49.2°F9.6°C 96% 5.8 mph NW9.3 kmh NW 9.2 mph14.8 kmh 30.41 in1029.8 mb - 0.00 in0.0 mm 0.01 in0.3 mm
08:20 PM 50.3°F10.2°C 49.2°F9.6°C 96% 8.1 mph WSW13.0 kmh WSW 15.0 mph24.1 kmh 30.40 in1029.5 mb - 0.00 in0.0 mm 0.01 in0.3 mm
08:30 PM 50.3°F10.2°C 49.2°F9.6°C 96% 8.1 mph SSW13.0 kmh SSW 16.1 mph25.9 kmh 30.40 in1029.5 mb - 0.00 in0.0 mm 0.01 in0.3 mm
08:40 PM 50.3°F10.2°C 49.2°F9.6°C 96% 8.1 mph WSW13.0 kmh WSW 13.8 mph22.2 kmh 30.40 in1029.5 mb - 0.00 in0.0 mm 0.01 in0.3 mm
08:50 PM 50.3°F10.2°C 48.9°F9.4°C 95% 9.2 mph W14.8 kmh W 15.0 mph24.1 kmh 30.40 in1029.5 mb - 0.00 in0.0 mm 0.01 in0.3 mm
09:00 PM 50.3°F10.2°C 48.9°F9.4°C 95% 5.8 mph WNW9.3 kmh WNW 11.5 mph18.5 kmh 30.40 in1029.5 mb - 0.00 in0.0 mm 0.01 in0.3 mm
09:10 PM 50.2°F10.1°C 48.8°F9.3°C 95% 5.8 mph WSW9.3 kmh WSW 11.5 mph18.5 kmh 30.39 in1029.1 mb - 0.00 in0.0 mm 0.01 in0.3 mm
09:20 PM 50.2°F10.1°C 48.8°F9.3°C 95% 8.1 mph WSW13.0 kmh WSW 12.7 mph20.4 kmh 30.39 in1029.1 mb - 0.00 in0.0 mm 0.01 in0.3 mm
09:30 PM 50.2°F10.1°C 48.9°F9.4°C 95% 9.2 mph W14.8 kmh W 15.0 mph24.1 kmh 30.39 in1029.1 mb - 0.00 in0.0 mm 0.01 in0.3 mm
09:40 PM 50.3°F10.2°C 48.9°F9.4°C 95% 6.9 mph WSW11.1 kmh WSW 11.5 mph18.5 kmh 30.39 in1029.1 mb - 0.00 in0.0 mm 0.01 in0.3 mm
09:50 PM 50.4°F10.2°C 49.0°F9.4°C 95% 8.1 mph WSW13.0 kmh WSW 18.4 mph29.6 kmh 30.39 in1029.1 mb - 0.00 in0.0 mm 0.01 in0.3 mm
10:00 PM 50.6°F10.3°C 49.2°F9.6°C 95% 8.1 mph WNW13.0 kmh WNW 12.7 mph20.4 kmh 30.39 in1029.1 mb - 0.00 in0.0 mm 0.01 in0.3 mm
10:10 PM 50.6°F10.3°C 49.2°F9.6°C 95% 5.8 mph WSW9.3 kmh WSW 11.5 mph18.5 kmh 30.39 in1029.1 mb - 0.00 in0.0 mm 0.01 in0.3 mm
10:20 PM 50.7°F10.4°C 49.3°F9.6°C 95% 2.3 mph W3.7 kmh W 5.8 mph9.3 kmh 30.39 in1029.1 mb - 0.00 in0.0 mm 0.01 in0.3 mm
10:30 PM 50.8°F10.4°C 49.4°F9.7°C 95% 1.2 mph W1.9 kmh W 2.3 mph3.7 kmh 30.38 in1028.8 mb - 0.00 in0.0 mm 0.01 in0.3 mm
10:40 PM 50.9°F10.5°C 49.5°F9.7°C 95% 4.6 mph W7.4 kmh W 6.9 mph11.1 kmh 30.38 in1028.8 mb - 0.00 in0.0 mm 0.01 in0.3 mm
10:50 PM 50.9°F10.5°C 49.5°F9.7°C 95% 6.9 mph W11.1 kmh W 12.7 mph20.4 kmh 30.37 in1028.4 mb - 0.00 in0.0 mm 0.01 in0.3 mm
11:00 PM 50.9°F10.5°C 49.5°F9.7°C 95% 6.9 mph SW11.1 kmh SW 11.5 mph18.5 kmh 30.37 in1028.4 mb - 0.00 in0.0 mm 0.01 in0.3 mm
11:10 PM 50.9°F10.5°C 49.5°F9.7°C 95% 5.8 mph W9.3 kmh W 12.7 mph20.4 kmh 30.37 in1028.4 mb - 0.00 in0.0 mm 0.01 in0.3 mm
11:20 PM 50.8°F10.4°C 49.4°F9.7°C 95% 6.9 mph WNW11.1 kmh WNW 12.7 mph20.4 kmh 30.36 in1028.1 mb - 0.00 in0.0 mm 0.01 in0.3 mm
11:30 PM 50.5°F10.3°C 49.4°F9.7°C 96% 8.1 mph W13.0 kmh W 11.5 mph18.5 kmh 30.36 in1028.1 mb - 0.00 in0.0 mm 0.01 in0.3 mm
11:40 PM 50.4°F10.2°C 49.3°F9.6°C 96% 8.1 mph NW13.0 kmh NW 11.5 mph18.5 kmh 30.36 in1028.1 mb - 0.00 in0.0 mm 0.01 in0.3 mm
11:50 PM 50.3°F10.2°C 49.2°F9.6°C 96% 5.8 mph W9.3 kmh W 11.5 mph18.5 kmh 30.36 in1028.1 mb - 0.00 in0.0 mm 0.01 in0.3 mm